Time;durP1;ratioP1;P1;durP2;ratioP2;P2;SDS_P1;SDS_P2;PMS_P1;PMS_P2;Temp;Humidity;BMP_temperature;BMP_pressure;BME280_temperature;BME280_humidity;BME280_pressure;Samples;Min_cycle;Max_cycle;Signal;HPM_P1;HPM_P2
2022/03/31 00:00:57;;;;;;;4.15;1.98;;;29.30;94.00;;;;;;4967678;28;20046;-77
2022/03/31 00:03:25;;;;;;;2.45;1.55;;;29.20;94.20;;;;;;4965071;28;20030;-77
2022/03/31 00:05:53;;;;;;;5.85;1.67;;;29.00;94.40;;;;;;4987951;28;20728;-79
2022/03/31 00:08:21;;;;;;;6.45;1.48;;;28.90;94.70;;;;;;4988234;28;20126;-80
2022/03/31 00:10:52;;;;;;;6.00;2.05;;;28.90;94.10;;;;;;4976548;28;20597;-78
2022/03/31 00:13:27;;;;;;;3.08;1.80;;;28.10;94.80;;;;;;4961672;28;20027;-78
2022/03/31 00:15:57;;;;;;;2.60;1.45;;;27.50;95.20;;;;;;4958655;28;20036;-79
2022/03/31 00:18:27;;;;;;;6.68;1.70;;;26.90;96.00;;;;;;4959396;28;20059;-78
2022/03/31 00:20:55;;;;;;;4.90;1.73;;;26.40;96.00;;;;;;4959521;28;20030;-78
2022/03/31 00:23:22;;;;;;;6.03;1.98;;;26.00;96.70;;;;;;4963566;28;20393;-78
2022/03/31 00:25:49;;;;;;;6.90;1.70;;;25.50;97.40;;;;;;4958302;28;20035;-78
2022/03/31 00:28:17;;;;;;;3.83;2.60;;;24.90;97.60;;;;;;4960400;28;20904;-81
2022/03/31 00:30:45;;;;;;;9.10;2.47;;;24.50;98.70;;;;;;4960753;28;21747;-78
2022/03/31 00:33:13;;;;;;;5.18;1.67;;;24.30;98.70;;;;;;4960861;28;20038;-78
2022/03/31 00:35:40;;;;;;;6.57;1.73;;;24.00;99.10;;;;;;4958010;28;20134;-77
2022/03/31 00:38:10;;;;;;;4.65;2.00;;;23.70;99.20;;;;;;4961481;28;20031;-80
2022/03/31 00:40:37;;;;;;;9.68;2.50;;;23.40;99.80;;;;;;4964888;28;20031;-79
2022/03/31 00:43:04;;;;;;;4.18;1.73;;;23.30;99.80;;;;;;4974305;28;20042;-77
2022/03/31 00:45:46;;;;;;;5.45;2.25;;;23.20;99.90;;;;;;4957511;28;20031;-79
2022/03/31 00:48:15;;;;;;;3.88;1.80;;;23.10;99.90;;;;;;4961483;28;20054;-79
2022/03/31 00:50:43;;;;;;;4.93;2.20;;;23.00;99.90;;;;;;4966963;28;20389;-78
2022/03/31 00:53:11;;;;;;;4.88;1.65;;;22.90;99.90;;;;;;4977046;28;20031;-78
2022/03/31 00:55:39;;;;;;;4.78;1.50;;;22.90;99.90;;;;;;4963872;28;20027;-77
2022/03/31 00:58:06;;;;;;;5.35;1.75;;;22.80;99.90;;;;;;4958075;28;20027;-77
2022/03/31 01:00:34;;;;;;;6.55;2.50;;;22.80;99.90;;;;;;4961212;28;20028;-77
2022/03/31 01:03:02;;;;;;;8.18;1.90;;;22.80;99.90;;;;;;4966099;28;20038;-78
2022/03/31 01:05:30;;;;;;;7.18;2.15;;;22.90;99.90;;;;;;4964491;28;20014;-82
2022/03/31 01:07:58;;;;;;;4.65;2.10;;;22.90;99.90;;;;;;4963044;28;20023;-80
2022/03/31 01:10:25;;;;;;;3.97;1.95;;;22.90;99.90;;;;;;4968216;28;20019;-80
2022/03/31 01:12:53;;;;;;;7.28;2.67;;;22.80;99.90;;;;;;4968615;28;20027;-75
2022/03/31 01:15:20;;;;;;;3.55;1.60;;;22.70;99.90;;;;;;4964183;28;20030;-76
2022/03/31 01:17:49;;;;;;;3.47;1.20;;;22.60;99.90;;;;;;4968184;28;20023;-75
2022/03/31 01:20:21;;;;;;;2.50;0.98;;;22.50;99.90;;;;;;4963883;28;20035;-74
2022/03/31 01:22:51;;;;;;;3.78;1.10;;;22.30;99.90;;;;;;4964944;28;20023;-75
2022/03/31 01:25:20;;;;;;;4.80;1.25;;;22.20;99.90;;;;;;4958543;28;20066;-74
2022/03/31 01:27:48;;;;;;;5.85;1.35;;;22.10;99.90;;;;;;4964575;28;20532;-74
2022/03/31 01:30:19;;;;;;;4.63;1.20;;;22.10;99.90;;;;;;4964989;28;20083;-75
2022/03/31 01:32:47;;;;;;;7.47;1.77;;;22.00;99.90;;;;;;4965075;28;20481;-74
2022/03/31 01:35:15;;;;;;;4.32;1.52;;;22.00;99.90;;;;;;4966556;28;20034;-73
2022/03/31 01:37:43;;;;;;;8.02;2.15;;;21.90;99.90;;;;;;4963993;28;20039;-74
2022/03/31 01:40:13;;;;;;;4.72;1.52;;;21.90;99.90;;;;;;4963210;28;20171;-76
2022/03/31 01:42:42;;;;;;;3.78;1.92;;;22.00;99.90;;;;;;4961735;28;20122;-73
2022/03/31 01:45:14;;;;;;;5.85;1.83;;;22.00;99.90;;;;;;4960446;28;20027;-71
2022/03/31 01:47:42;;;;;;;5.55;1.52;;;21.90;99.90;;;;;;4960371;28;20031;-72
2022/03/31 01:50:10;;;;;;;7.65;2.45;;;21.70;99.90;;;;;;4963256;28;20023;-73
2022/03/31 01:52:39;;;;;;;6.63;1.83;;;21.70;99.90;;;;;;4957599;28;20031;-73
2022/03/31 01:55:07;;;;;;;4.30;1.77;;;21.80;99.90;;;;;;4956754;28;20126;-73
2022/03/31 01:57:35;;;;;;;3.97;1.60;;;21.90;99.90;;;;;;4973692;28;20102;-74
2022/03/31 02:00:03;;;;;;;4.82;1.50;;;21.90;99.90;;;;;;4961035;28;20031;-74
2022/03/31 02:02:32;;;;;;;3.97;2.25;;;21.90;99.90;;;;;;4960317;28;20430;-72
2022/03/31 02:04:59;;;;;;;4.13;1.65;;;21.80;99.90;;;;;;4959621;28;20038;-74
2022/03/31 02:07:28;;;;;;;4.30;1.42;;;21.50;99.90;;;;;;4970443;28;20489;-74
2022/03/31 02:09:55;;;;;;;3.75;1.38;;;21.10;99.90;;;;;;4963768;28;20039;-73
2022/03/31 02:12:24;;;;;;;4.05;1.60;;;20.80;99.90;;;;;;4963100;28;20027;-73
2022/03/31 02:14:54;;;;;;;5.15;2.35;;;20.60;99.90;;;;;;4959560;28;20366;-72
2022/03/31 02:17:21;;;;;;;2.25;1.50;;;20.40;99.90;;;;;;4967704;28;20050;-72
2022/03/31 02:19:49;;;;;;;5.28;1.73;;;20.40;99.90;;;;;;4958241;28;20117;-74
2022/03/31 02:22:17;;;;;;;5.45;1.27;;;20.30;99.90;;;;;;4963085;28;20069;-74
2022/03/31 02:24:45;;;;;;;3.95;1.30;;;20.40;99.90;;;;;;4968386;28;20600;-73
2022/03/31 02:27:12;;;;;;;9.68;1.52;;;20.30;99.90;;;;;;4971484;28;20030;-74
2022/03/31 02:29:39;;;;;;;7.75;1.45;;;20.20;99.90;;;;;;4969065;28;20051;-73
2022/03/31 02:32:08;;;;;;;7.25;1.67;;;20.30;99.90;;;;;;4967123;28;20381;-73
2022/03/31 02:34:36;;;;;;;3.25;1.33;;;20.20;99.90;;;;;;4962289;28;20049;-74
2022/03/31 02:37:04;;;;;;;4.00;1.58;;;20.20;99.90;;;;;;4963646;28;20123;-74
2022/03/31 02:39:32;;;;;;;5.13;1.85;;;20.30;99.90;;;;;;4968299;28;20496;-75
2022/03/31 02:42:01;;;;;;;2.63;1.00;;;20.40;99.90;;;;;;4964912;28;20031;-74
2022/03/31 02:44:28;;;;;;;4.32;1.30;;;20.50;99.90;;;;;;4960814;28;20505;-74
2022/03/31 02:46:56;;;;;;;5.55;2.33;;;20.50;99.90;;;;;;4967201;28;20039;-73
2022/03/31 02:49:23;;;;;;;2.50;1.40;;;20.70;99.90;;;;;;4967624;28;20390;-73
2022/03/31 02:51:50;;;;;;;2.40;1.35;;;20.80;99.90;;;;;;4965133;28;20034;-74
2022/03/31 02:57:03;;;;;;;3.73;1.40;;;21.00;99.90;;;;;;4961080;28;20551;-73
2022/03/31 02:59:32;;;;;;;4.03;1.40;;;21.10;99.90;;;;;;4963528;28;20265;-74
2022/03/31 03:02:00;;;;;;;3.83;1.58;;;21.00;99.90;;;;;;4967903;28;20445;-73
2022/03/31 03:04:27;;;;;;;4.82;1.00;;;21.00;99.90;;;;;;4965247;28;20414;-74
2022/03/31 03:06:54;;;;;;;1.70;1.52;;;21.00;99.90;;;;;;4961366;28;20454;-75
2022/03/31 03:09:22;;;;;;;3.83;0.80;;;20.90;99.90;;;;;;4960550;28;20682;-73
2022/03/31 03:11:50;;;;;;;1.73;0.88;;;20.90;99.90;;;;;;4965574;28;20033;-77
2022/03/31 03:14:18;;;;;;;3.40;1.55;;;20.90;99.90;;;;;;4967857;28;20171;-73
2022/03/31 03:16:46;;;;;;;7.20;1.63;;;20.90;99.90;;;;;;4965515;28;20042;-74
2022/03/31 03:19:13;;;;;;;4.95;1.25;;;20.90;99.90;;;;;;4965068;28;20035;-74
2022/03/31 03:21:41;;;;;;;6.50;1.27;;;21.00;99.90;;;;;;4966581;28;20043;-74
2022/03/31 03:24:10;;;;;;;5.18;1.75;;;21.20;99.90;;;;;;4964782;28;20030;-74
2022/03/31 03:26:37;;;;;;;9.52;2.08;;;21.60;99.90;;;;;;4970298;28;20035;-75
2022/03/31 03:29:05;;;;;;;5.22;1.55;;;21.80;99.90;;;;;;4957142;28;20042;-74
2022/03/31 03:31:32;;;;;;;6.03;1.75;;;21.80;99.90;;;;;;4961448;28;20077;-74
2022/03/31 03:33:59;;;;;;;8.77;2.20;;;21.70;99.90;;;;;;4964460;28;20027;-73
2022/03/31 03:36:27;;;;;;;9.77;2.72;;;21.50;99.90;;;;;;4962610;28;20510;-74
2022/03/31 03:38:54;;;;;;;12.30;2.38;;;21.30;99.90;;;;;;4970097;28;20046;-73
2022/03/31 03:41:21;;;;;;;9.05;1.95;;;21.20;99.90;;;;;;4964450;28;20039;-73
2022/03/31 03:43:49;;;;;;;11.52;3.72;;;21.10;99.90;;;;;;4963256;28;20031;-74
2022/03/31 03:46:16;;;;;;;11.73;2.25;;;20.90;99.90;;;;;;4968207;28;20496;-74
2022/03/31 03:48:43;;;;;;;13.65;2.47;;;20.80;99.90;;;;;;4971669;28;20031;-75
2022/03/31 03:51:11;;;;;;;10.35;2.25;;;20.80;99.90;;;;;;4970313;28;20560;-75
2022/03/31 03:53:38;;;;;;;11.65;2.42;;;20.80;99.90;;;;;;4987875;28;20023;-75
2022/03/31 03:56:06;;;;;;;11.82;2.30;;;20.90;99.90;;;;;;4984453;28;20038;-73
2022/03/31 03:58:34;;;;;;;10.32;2.55;;;20.90;99.90;;;;;;4982023;28;20035;-74
2022/03/31 04:01:01;;;;;;;12.50;2.60;;;20.90;99.90;;;;;;4966722;28;20062;-74
2022/03/31 04:03:28;;;;;;;13.57;2.67;;;20.90;99.90;;;;;;4960938;28;20027;-73
2022/03/31 04:05:59;;;;;;;9.75;2.20;;;20.90;99.90;;;;;;4968338;28;20042;-74
2022/03/31 04:08:26;;;;;;;14.02;3.42;;;20.80;99.90;;;;;;4958804;28;20042;-74
2022/03/31 04:10:55;;;;;;;9.55;2.33;;;20.80;99.90;;;;;;4956703;28;20058;-74
2022/03/31 04:13:22;;;;;;;11.30;3.22;;;20.70;99.90;;;;;;4960670;28;20031;-75
2022/03/31 04:15:50;;;;;;;8.75;2.85;;;20.50;99.90;;;;;;4967127;28;20031;-76
2022/03/31 04:18:18;;;;;;;18.83;2.42;;;20.40;99.90;;;;;;4966602;28;20362;-74
2022/03/31 04:20:46;;;;;;;9.55;1.88;;;20.30;99.90;;;;;;4964867;28;20496;-75
2022/03/31 04:23:13;;;;;;;11.80;2.50;;;20.30;99.90;;;;;;4967907;28;20434;-74
2022/03/31 04:25:40;;;;;;;16.60;2.67;;;20.40;99.90;;;;;;4970080;28;20089;-75
2022/03/31 04:28:08;;;;;;;6.60;2.03;;;20.50;99.90;;;;;;4965576;28;20038;-75
2022/03/31 04:30:35;;;;;;;15.82;2.33;;;20.50;99.90;;;;;;4970630;28;20019;-74
2022/03/31 04:33:03;;;;;;;15.65;2.53;;;20.40;99.90;;;;;;4965585;28;20118;-75
2022/03/31 04:35:30;;;;;;;11.77;2.22;;;20.40;99.90;;;;;;4970388;28;20103;-73
2022/03/31 04:37:57;;;;;;;11.75;3.40;;;20.40;99.90;;;;;;4972654;28;20165;-75
2022/03/31 04:40:25;;;;;;;17.95;2.42;;;20.70;99.90;;;;;;4966564;28;20027;-74
2022/03/31 04:42:52;;;;;;;10.18;2.92;;;20.90;99.90;;;;;;4966628;28;20038;-74
2022/03/31 04:45:19;;;;;;;9.45;2.30;;;21.20;99.90;;;;;;4969265;28;20023;-74
2022/03/31 04:47:49;;;;;;;16.95;2.63;;;21.40;99.90;;;;;;4963660;28;20045;-73
2022/03/31 04:50:20;;;;;;;10.35;1.75;;;21.50;99.90;;;;;;4963991;28;20028;-80
2022/03/31 04:52:47;;;;;;;13.27;2.55;;;21.70;99.90;;;;;;4963823;28;20039;-74
2022/03/31 04:55:14;;;;;;;17.80;2.53;;;21.80;99.90;;;;;;4968440;28;20073;-75
2022/03/31 04:57:42;;;;;;;13.88;3.22;;;21.90;99.90;;;;;;4968742;28;20635;-75
2022/03/31 05:00:10;;;;;;;11.55;2.42;;;22.00;99.90;;;;;;4965215;28;20035;-75
2022/03/31 05:02:37;;;;;;;10.13;2.00;;;22.00;99.90;;;;;;4966350;28;20162;-77
2022/03/31 05:05:05;;;;;;;10.98;1.63;;;22.10;99.90;;;;;;4963398;28;20027;-76
2022/03/31 05:07:32;;;;;;;7.40;1.50;;;22.00;99.90;;;;;;4968554;28;20031;-75
2022/03/31 05:10:00;;;;;;;11.15;2.13;;;21.90;99.90;;;;;;4966091;28;20030;-74
2022/03/31 05:12:27;;;;;;;10.02;1.90;;;21.90;99.90;;;;;;4966312;28;20450;-78
2022/03/31 05:14:54;;;;;;;8.38;2.30;;;21.90;99.90;;;;;;4968061;28;20043;-76
2022/03/31 05:17:27;;;;;;;7.15;1.90;;;21.80;99.90;;;;;;4971180;28;20031;-78
2022/03/31 05:19:54;;;;;;;14.60;2.35;;;21.70;99.90;;;;;;4959216;28;20112;-80
2022/03/31 05:22:22;;;;;;;14.27;2.83;;;21.60;99.90;;;;;;4970678;28;20030;-81
2022/03/31 05:24:49;;;;;;;9.20;1.77;;;21.60;99.90;;;;;;4968513;28;20033;-79
2022/03/31 05:27:16;;;;;;;8.88;1.92;;;21.60;99.90;;;;;;4972733;28;20035;-80
2022/03/31 05:29:43;;;;;;;9.75;2.47;;;21.60;99.90;;;;;;4968920;28;20051;-77
2022/03/31 05:32:11;;;;;;;6.40;1.05;;;21.50;99.90;;;;;;4970134;28;20118;-83
2022/03/31 05:34:38;;;;;;;13.07;2.40;;;21.40;99.90;;;;;;4959149;28;20027;-75
2022/03/31 05:37:06;;;;;;;11.52;2.40;;;21.20;99.90;;;;;;4963398;28;20126;-75
2022/03/31 05:39:34;;;;;;;16.50;2.50;;;21.10;99.90;;;;;;4963761;28;20031;-75
2022/03/31 05:42:02;;;;;;;8.55;2.13;;;20.60;99.90;;;;;;4969141;28;20890;-74
2022/03/31 05:44:30;;;;;;;15.73;3.38;;;20.20;99.90;;;;;;4969015;28;20117;-74
2022/03/31 05:46:57;;;;;;;16.25;2.17;;;19.80;99.90;;;;;;4970348;28;20050;-78
2022/03/31 05:49:25;;;;;;;10.05;1.50;;;19.70;99.90;;;;;;4968297;28;20034;-75
2022/03/31 05:51:52;;;;;;;12.18;1.52;;;19.70;99.90;;;;;;4971753;28;20062;-75
2022/03/31 05:54:19;;;;;;;7.43;1.63;;;19.90;99.90;;;;;;4958562;28;20034;-74
2022/03/31 05:56:47;;;;;;;5.95;2.00;;;20.40;99.90;;;;;;4969261;28;20051;-78
2022/03/31 05:59:15;;;;;;;10.93;2.13;;;20.50;99.90;;;;;;4967367;28;20054;-76
2022/03/31 06:01:43;;;;;;;10.88;2.88;;;20.30;99.90;;;;;;4964900;28;20031;-76
2022/03/31 06:04:10;;;;;;;10.18;2.50;;;20.20;99.90;;;;;;4964015;28;20496;-77
2022/03/31 06:06:38;;;;;;;8.95;1.23;;;20.00;99.90;;;;;;4966490;28;20035;-78
2022/03/31 06:09:05;;;;;;;8.82;2.10;;;19.70;99.90;;;;;;4970591;28;20022;-76
2022/03/31 06:11:32;;;;;;;8.18;1.45;;;19.50;99.90;;;;;;4965679;28;20528;-75
2022/03/31 06:14:00;;;;;;;9.27;1.83;;;19.40;99.90;;;;;;4961411;28;20023;-75
2022/03/31 06:16:27;;;;;;;8.50;1.45;;;19.40;99.90;;;;;;4965014;28;20082;-78
2022/03/31 06:18:55;;;;;;;12.68;1.23;;;19.40;99.90;;;;;;4968528;28;20042;-75
2022/03/31 06:21:24;;;;;;;8.07;1.35;;;19.50;99.90;;;;;;4956952;28;20469;-75
2022/03/31 06:23:51;;;;;;;7.72;1.20;;;19.40;99.90;;;;;;4957627;28;20027;-78
2022/03/31 06:26:18;;;;;;;8.57;1.75;;;19.50;99.90;;;;;;4965038;28;20074;-77
2022/03/31 06:28:46;;;;;;;6.38;1.42;;;19.50;99.90;;;;;;4962273;28;20111;-79
2022/03/31 06:31:14;;;;;;;4.47;0.85;;;19.50;99.90;;;;;;4968341;28;20035;-77
2022/03/31 06:33:41;;;;;;;7.95;2.25;;;19.40;99.90;;;;;;4969413;28;20378;-80
2022/03/31 06:36:08;;;;;;;8.10;0.95;;;19.30;99.90;;;;;;4965674;28;20042;-79
2022/03/31 06:38:36;;;;;;;8.35;1.73;;;19.20;99.90;;;;;;4970888;28;20077;-79
2022/03/31 06:41:06;;;;;;;5.07;0.98;;;19.20;99.90;;;;;;4961131;28;20035;-80
2022/03/31 06:43:34;;;;;;;2.53;0.73;;;19.20;99.90;;;;;;4957709;28;20023;-81
2022/03/31 06:46:02;;;;;;;8.65;0.80;;;19.20;99.90;;;;;;4963457;28;20031;-78
2022/03/31 06:48:30;;;;;;;7.93;2.00;;;19.20;99.90;;;;;;4964579;28;20081;-79
2022/03/31 06:50:59;;;;;;;6.35;1.20;;;19.20;99.90;;;;;;4965561;28;20627;-77
2022/03/31 06:53:26;;;;;;;2.88;1.08;;;19.10;99.90;;;;;;4971149;28;20042;-78
2022/03/31 06:55:54;;;;;;;4.57;1.15;;;19.10;99.90;;;;;;4961520;28;20039;-80
2022/03/31 06:58:30;;;;;;;8.02;0.80;;;19.10;99.90;;;;;;4964953;28;20408;-74
2022/03/31 07:00:57;;;;;;;;;;;19.10;99.90;;;;;;4965183;28;20400;-76
2022/03/31 07:03:24;;;;;;;5.35;1.10;;;19.10;99.90;;;;;;4964637;28;19990;-74
2022/03/31 07:05:52;;;;;;;6.30;1.38;;;19.00;99.90;;;;;;4964192;28;20022;-76
2022/03/31 07:08:20;;;;;;;3.70;1.23;;;19.00;99.90;;;;;;4969132;28;20045;-74
2022/03/31 07:10:47;;;;;;;9.02;1.00;;;18.90;99.90;;;;;;4958144;28;20041;-72
2022/03/31 07:13:15;;;;;;;6.38;0.70;;;18.90;99.90;;;;;;4966138;28;20453;-74
2022/03/31 07:15:43;;;;;;;8.45;0.80;;;19.00;99.90;;;;;;4961159;28;20062;-74
2022/03/31 07:18:10;;;;;;;10.00;1.40;;;18.90;99.90;;;;;;4961722;28;20027;-74
2022/03/31 07:20:38;;;;;;;14.48;2.10;;;18.90;99.90;;;;;;4962571;28;20054;-76
2022/03/31 07:23:07;;;;;;;5.47;1.27;;;18.90;99.90;;;;;;4961802;28;20060;-77
2022/03/31 07:25:35;;;;;;;8.20;1.10;;;18.80;99.90;;;;;;4957695;28;20110;-74
2022/03/31 07:28:04;;;;;;;7.65;0.95;;;18.80;99.90;;;;;;4966180;28;20393;-75
2022/03/31 07:30:31;;;;;;;6.65;1.40;;;18.80;99.90;;;;;;4965669;28;20040;-74
2022/03/31 07:33:01;;;;;;;8.18;1.27;;;18.70;99.90;;;;;;4963782;28;20466;-73
2022/03/31 07:35:31;;;;;;;8.60;1.88;;;18.70;99.90;;;;;;4963774;28;20039;-73
2022/03/31 07:37:59;;;;;;;5.07;1.48;;;18.70;99.90;;;;;;4968259;28;20413;-77
2022/03/31 07:40:27;;;;;;;11.13;2.55;;;18.70;99.90;;;;;;4965729;28;20030;-75
2022/03/31 07:42:55;;;;;;;9.70;1.77;;;18.70;99.90;;;;;;4977499;28;20460;-73
2022/03/31 07:45:23;;;;;;;5.57;1.60;;;18.70;99.90;;;;;;4977526;28;20393;-73
2022/03/31 07:47:50;;;;;;;3.75;1.30;;;18.70;99.90;;;;;;4974732;28;20551;-74
2022/03/31 07:50:19;;;;;;;6.65;1.38;;;18.70;99.90;;;;;;4963004;28;20402;-75
2022/03/31 07:52:50;;;;;;;9.07;1.65;;;18.60;99.90;;;;;;4962501;28;20034;-74
2022/03/31 07:55:19;;;;;;;8.00;1.60;;;18.50;99.90;;;;;;4962599;28;20031;-75
2022/03/31 07:57:48;;;;;;;8.63;1.20;;;18.50;99.90;;;;;;4966186;28;20393;-73
2022/03/31 08:00:17;;;;;;;7.65;1.77;;;18.40;99.90;;;;;;4968307;28;20019;-74
2022/03/31 08:02:46;;;;;;;11.73;3.10;;;18.30;99.90;;;;;;4967126;28;20429;-74
2022/03/31 08:05:21;;;;;;;12.73;2.10;;;18.10;99.90;;;;;;4960120;28;20042;-74
2022/03/31 08:07:49;;;;;;;4.93;1.33;;;18.00;99.90;;;;;;4974275;28;20034;-75
2022/03/31 08:10:17;;;;;;;8.82;1.52;;;17.90;99.90;;;;;;4971545;28;20045;-74
2022/03/31 08:12:45;;;;;;;10.55;3.15;;;17.80;99.90;;;;;;4972047;28;20074;-74
2022/03/31 08:15:15;;;;;;;13.38;2.63;;;17.70;99.90;;;;;;4973111;28;20026;-74
2022/03/31 08:17:45;;;;;;;10.63;1.55;;;17.70;99.90;;;;;;4973614;28;20051;-74
2022/03/31 08:20:13;;;;;;;12.32;1.13;;;17.60;99.90;;;;;;4967417;28;20023;-75
2022/03/31 08:22:41;;;;;;;10.15;2.47;;;17.60;99.90;;;;;;4975526;28;20505;-75
2022/03/31 08:25:11;;;;;;;4.40;0.68;;;17.50;99.90;;;;;;4972170;28;20108;-76
2022/03/31 08:27:39;;;;;;;10.07;0.95;;;17.40;99.90;;;;;;4974969;28;20093;-74
2022/03/31 08:30:13;;;;;;;8.98;1.60;;;17.40;99.90;;;;;;4971777;28;20043;-75
2022/03/31 08:32:43;;;;;;;4.03;0.80;;;17.30;99.90;;;;;;4972588;28;20035;-75
2022/03/31 08:35:11;;;;;;;7.45;0.90;;;17.30;99.90;;;;;;4972384;28;20033;-74
2022/03/31 08:37:39;;;;;;;4.95;1.40;;;17.20;99.90;;;;;;4975353;28;20412;-74
2022/03/31 08:40:10;;;;;;;3.45;1.05;;;17.20;99.90;;;;;;4973825;28;20022;-73
2022/03/31 08:42:37;;;;;;;3.08;0.77;;;17.20;99.90;;;;;;4973295;28;20490;-73
2022/03/31 08:45:06;;;;;;;6.43;1.90;;;17.20;99.90;;;;;;4971069;28;20050;-74
2022/03/31 08:47:35;;;;;;;11.63;1.45;;;17.10;99.90;;;;;;4967875;28;20086;-74
2022/03/31 08:50:02;;;;;;;8.43;1.38;;;17.10;99.90;;;;;;4972164;28;20023;-74
2022/03/31 08:52:30;;;;;;;6.68;1.67;;;17.00;99.90;;;;;;4974524;28;20035;-74
2022/03/31 08:54:57;;;;;;;8.48;1.27;;;17.00;99.90;;;;;;4970466;28;20058;-74
2022/03/31 08:57:25;;;;;;;11.93;1.33;;;16.90;99.90;;;;;;4958324;28;20383;-73
2022/03/31 08:59:53;;;;;;;10.00;1.13;;;16.90;99.90;;;;;;4965054;28;20027;-74
2022/03/31 09:02:25;;;;;;;13.10;1.90;;;16.90;99.90;;;;;;4973574;28;20473;-74
2022/03/31 09:05:09;;;;;;;9.00;1.73;;;16.90;99.90;;;;;;4969579;28;20035;-73
2022/03/31 09:07:57;;;;;;;5.90;1.20;;;16.80;99.90;;;;;;4967678;28;20118;-74
2022/03/31 09:10:33;;;;;;;4.93;1.27;;;16.80;99.90;;;;;;4968875;28;20035;-75
2022/03/31 09:13:03;;;;;;;6.35;0.80;;;16.70;99.90;;;;;;4960119;28;20042;-77
2022/03/31 09:15:33;;;;;;;6.47;1.55;;;16.70;99.90;;;;;;4975730;28;20501;-75
2022/03/31 09:18:01;;;;;;;5.90;1.08;;;16.60;99.90;;;;;;4974407;28;20438;-75
2022/03/31 09:21:12;;;;;;;5.75;1.08;;;16.60;99.90;;;;;;4967373;28;20042;-75
2022/03/31 09:27:03;;;;;;;5.80;0.77;;;16.50;99.90;;;;;;4971621;28;20571;-75
2022/03/31 09:29:32;;;;;;;9.13;0.77;;;16.50;99.90;;;;;;4955362;28;20062;-75
2022/03/31 09:32:15;;;;;;;9.25;1.48;;;16.40;99.90;;;;;;4969012;28;20043;-76
2022/03/31 09:34:45;;;;;;;4.93;1.60;;;16.40;99.90;;;;;;4940222;29;20066;-75
2022/03/31 09:37:13;;;;;;;7.55;1.50;;;16.30;99.90;;;;;;4969133;28;20041;-75
2022/03/31 09:39:41;;;;;;;7.88;1.30;;;16.30;99.90;;;;;;4972343;28;20038;-75
2022/03/31 09:42:17;;;;;;;8.02;1.90;;;16.30;99.90;;;;;;4962267;28;20050;-74
2022/03/31 09:44:44;;;;;;;6.60;1.75;;;16.30;99.90;;;;;;4954498;28;20038;-75
2022/03/31 09:47:12;;;;;;;5.32;1.38;;;16.40;99.90;;;;;;4968736;28;20030;-75
2022/03/31 09:49:39;;;;;;;6.03;0.80;;;16.40;99.90;;;;;;4967482;28;20024;-75
2022/03/31 09:52:10;;;;;;;6.30;1.15;;;16.40;99.90;;;;;;4962872;28;20037;-75
2022/03/31 09:54:39;;;;;;;4.70;1.13;;;16.50;99.90;;;;;;4966298;28;20037;-76
2022/03/31 09:57:08;;;;;;;7.15;0.82;;;16.50;99.90;;;;;;4971683;28;20393;-75
2022/03/31 09:59:41;;;;;;;7.68;1.35;;;16.50;99.90;;;;;;4961845;28;20027;-75
2022/03/31 10:02:09;;;;;;;5.85;1.40;;;16.50;99.90;;;;;;4953577;28;20406;-75
2022/03/31 10:04:36;;;;;;;7.38;1.45;;;16.50;99.90;;;;;;4963016;28;20019;-75
2022/03/31 10:07:04;;;;;;;5.65;1.08;;;16.60;99.90;;;;;;4972728;28;20030;-75
2022/03/31 10:09:33;;;;;;;6.50;1.70;;;16.70;99.90;;;;;;4973130;28;20019;-75
2022/03/31 10:12:27;;;;;;;5.50;1.40;;;16.80;99.90;;;;;;4972301;28;20066;-75
2022/03/31 10:15:03;;;;;;;10.95;1.10;;;16.80;99.90;;;;;;4964360;28;20074;-75
2022/03/31 10:17:32;;;;;;;7.78;0.85;;;16.80;99.90;;;;;;4967089;28;20046;-74
2022/03/31 10:20:13;;;;;;;4.90;0.85;;;16.80;99.90;;;;;;4965927;28;20031;-75
2022/03/31 10:25:40;;;;;;;5.13;1.40;;;16.90;99.90;;;;;;4961279;28;20046;-75
2022/03/31 10:28:20;;;;;;;5.45;1.17;;;16.90;99.90;;;;;;4957956;28;20770;-75
2022/03/31 10:31:03;;;;;;;8.23;1.75;;;16.90;99.90;;;;;;4959210;28;20125;-75
2022/03/31 10:33:37;;;;;;;6.75;1.15;;;16.90;99.90;;;;;;4960046;28;20489;-74
2022/03/31 10:36:10;;;;;;;7.25;1.30;;;16.90;99.90;;;;;;4964600;28;21455;-75
2022/03/31 10:38:39;;;;;;;10.13;1.17;;;16.90;99.90;;;;;;4964225;28;20081;-75
2022/03/31 10:41:13;;;;;;;6.05;0.68;;;16.80;99.90;;;;;;4962442;28;20050;-75
2022/03/31 10:43:48;;;;;;;4.60;0.98;;;16.70;99.90;;;;;;4967904;28;20045;-75
2022/03/31 10:46:19;;;;;;;;;;;16.60;99.90;;;;;;4969355;28;20437;-76
2022/03/31 10:48:55;;;;;;;8.95;1.00;;;16.50;99.90;;;;;;4963904;28;20292;-74
2022/03/31 10:51:34;;;;;;;6.32;0.98;;;16.40;99.90;;;;;;4966706;28;20029;-74
2022/03/31 10:54:02;;;;;;;3.60;0.85;;;16.40;99.90;;;;;;4964563;28;20041;-74
2022/03/31 10:56:32;;;;;;;3.90;0.73;;;16.40;99.90;;;;;;4956717;28;20418;-73
2022/03/31 10:59:04;;;;;;;7.80;1.13;;;16.30;99.90;;;;;;4954154;28;20045;-76
2022/03/31 11:01:36;;;;;;;8.05;1.02;;;16.30;99.90;;;;;;4961735;28;20118;-75
2022/03/31 11:04:07;;;;;;;6.97;0.80;;;16.20;99.90;;;;;;4956574;28;20039;-74
2022/03/31 11:06:45;;;;;;;1.83;0.57;;;16.20;99.90;;;;;;4954216;28;20067;-75
2022/03/31 11:09:27;;;;;;;4.13;1.48;;;16.10;99.90;;;;;;4969055;28;20070;-75
2022/03/31 11:11:59;;;;;;;6.25;1.27;;;16.10;99.90;;;;;;4958729;28;20069;-74
2022/03/31 11:14:27;;;;;;;9.77;0.82;;;16.00;99.90;;;;;;4965955;28;20102;-74
2022/03/31 11:16:55;;;;;;;6.80;0.73;;;16.00;99.90;;;;;;4980590;28;20129;-74
2022/03/31 11:19:22;;;;;;;2.95;0.65;;;15.90;99.90;;;;;;4988086;28;20011;-73
2022/03/31 11:21:50;;;;;;;3.95;0.57;;;15.90;99.90;;;;;;4980959;28;20091;-73
2022/03/31 11:24:24;;;;;;;8.48;1.52;;;15.90;99.90;;;;;;4962309;28;20476;-74
2022/03/31 11:26:54;;;;;;;2.38;0.73;;;15.80;99.90;;;;;;4965710;28;20078;-74
2022/03/31 11:29:26;;;;;;;7.22;1.52;;;15.80;99.90;;;;;;4961927;28;20055;-75
2022/03/31 11:31:56;;;;;;;5.60;0.68;;;15.80;99.90;;;;;;4964713;28;20066;-74
2022/03/31 11:34:26;;;;;;;4.60;0.57;;;15.70;99.90;;;;;;4964941;28;20101;-75
2022/03/31 11:36:54;;;;;;;3.55;0.68;;;15.80;99.90;;;;;;4960082;28;20034;-74
2022/03/31 11:39:30;;;;;;;5.05;1.90;;;15.70;99.90;;;;;;4964893;28;20019;-74
2022/03/31 11:42:00;;;;;;;4.85;1.00;;;15.70;99.90;;;;;;4964518;28;20031;-73
2022/03/31 11:44:31;;;;;;;6.30;0.90;;;15.70;99.90;;;;;;4964389;28;20031;-74
2022/03/31 11:46:58;;;;;;;7.38;1.17;;;15.70;99.90;;;;;;4964428;28;20035;-73
2022/03/31 11:49:27;;;;;;;5.60;1.55;;;15.60;99.90;;;;;;4966116;28;20049;-74
2022/03/31 11:52:00;;;;;;;7.07;1.00;;;15.60;99.90;;;;;;4957034;28;20147;-78
2022/03/31 11:54:29;;;;;;;4.30;0.45;;;15.70;99.90;;;;;;4969549;28;20477;-75
2022/03/31 11:57:05;;;;;;;7.25;0.60;;;15.70;99.90;;;;;;4973018;28;20052;-75
2022/03/31 11:59:32;;;;;;;7.47;0.75;;;15.70;99.90;;;;;;4958776;28;20032;-74
2022/03/31 12:02:00;;;;;;;2.33;0.30;;;15.70;99.90;;;;;;4959468;28;20517;-74
2022/03/31 12:04:30;;;;;;;3.20;0.68;;;15.70;99.90;;;;;;4961863;28;20022;-74
2022/03/31 12:07:00;;;;;;;2.20;0.65;;;15.70;99.90;;;;;;4965170;28;20027;-74
2022/03/31 12:09:27;;;;;;;6.35;0.98;;;15.70;99.90;;;;;;4963550;28;20143;-74
2022/03/31 12:11:55;;;;;;;1.27;0.50;;;15.70;99.90;;;;;;4963846;28;20386;-75
2022/03/31 12:14:28;;;;;;;3.45;0.40;;;15.80;99.90;;;;;;4963002;28;20035;-74
2022/03/31 12:16:59;;;;;;;1.85;0.20;;;15.80;99.90;;;;;;4963793;28;20050;-74
2022/03/31 12:19:39;;;;;;;2.40;0.52;;;15.80;99.90;;;;;;4961071;28;20039;-74
2022/03/31 12:22:09;;;;;;;1.48;0.30;;;15.90;99.90;;;;;;4956176;28;20477;-73
2022/03/31 12:24:56;;;;;;;2.05;0.65;;;15.80;99.90;;;;;;4958105;28;20843;-74
2022/03/31 12:27:27;;;;;;;4.20;0.75;;;15.80;99.90;;;;;;4967806;28;20385;-74
2022/03/31 12:30:03;;;;;;;6.60;0.70;;;15.80;99.90;;;;;;4968513;28;20058;-74
2022/03/31 12:32:33;;;;;;;4.32;0.47;;;15.90;99.90;;;;;;4973697;28;20085;-74
2022/03/31 12:35:01;;;;;;;3.05;0.30;;;15.90;99.90;;;;;;4973792;28;20031;-74
2022/03/31 12:37:37;;;;;;;3.03;0.38;;;15.90;99.90;;;;;;4970598;28;20041;-74
2022/03/31 12:40:11;;;;;;;1.65;0.63;;;16.00;99.90;;;;;;4954583;28;20059;-74
2022/03/31 12:42:50;;;;;;;2.58;0.38;;;16.00;99.90;;;;;;4963078;28;20109;-74
2022/03/31 12:45:18;;;;;;;2.28;0.70;;;16.10;99.90;;;;;;4961278;28;20102;-74
2022/03/31 12:47:47;;;;;;;1.50;0.38;;;16.00;99.90;;;;;;4967436;28;20459;-74
2022/03/31 12:50:20;;;;;;;3.13;0.30;;;16.00;99.90;;;;;;4955680;28;20042;-74
2022/03/31 12:52:59;;;;;;;3.78;0.30;;;16.00;99.90;;;;;;4971684;28;20037;-73
2022/03/31 12:55:35;;;;;;;2.70;0.98;;;16.00;99.90;;;;;;4962625;28;20023;-74
2022/03/31 12:58:04;;;;;;;4.00;0.85;;;16.00;99.90;;;;;;4956978;28;20050;-75
2022/03/31 13:00:38;;;;;;;3.50;0.22;;;16.00;99.90;;;;;;4961104;28;20027;-75
2022/03/31 13:03:08;;;;;;;2.22;0.30;;;16.00;99.90;;;;;;4960565;28;20164;-75
2022/03/31 13:05:35;;;;;;;0.50;0.20;;;16.00;99.90;;;;;;4961451;28;20076;-74